Time;durP1;ratioP1;P1;durP2;ratioP2;P2;SDS_P1;SDS_P2;PMS_P1;PMS_P2;Temp;Humidity;BMP_temperature;BMP_pressure;BME280_temperature;BME280_humidity;BME280_pressure;Samples;Min_cycle;Max_cycle;Signal;HPM_P1;HPM_P2
2022/01/28 00:01:06;;;;;;;0.30;0.10;;;2.50;99.90;;;;;;5058699;28;20491;-82
2022/01/28 00:03:36;;;;;;;0.30;0.10;;;2.50;99.90;;;;;;5059930;28;20464;-83
2022/01/28 00:06:04;;;;;;;0.30;0.10;;;2.50;99.90;;;;;;5066494;28;20446;-84
2022/01/28 00:08:31;;;;;;;0.30;0.10;;;2.50;99.90;;;;;;5068834;28;20442;-82
2022/01/28 00:10:58;;;;;;;0.30;0.10;;;2.50;99.90;;;;;;5058219;28;20818;-82
2022/01/28 00:13:30;;;;;;;0.30;0.10;;;2.50;99.90;;;;;;5062205;28;20900;-84
2022/01/28 00:16:37;;;;;;;0.30;0.10;;;2.50;99.90;;;;;;5066305;28;20458;-86
2022/01/28 00:38:26;;;;;;;0.30;0.10;;;2.50;99.90;;;;;;5059567;28;20510;-87
2022/01/28 00:40:53;;;;;;;0.30;0.10;;;2.40;99.90;;;;;;5054972;28;20485;-87
2022/01/28 00:43:20;;;;;;;0.30;0.10;;;2.50;99.90;;;;;;5067846;28;20544;-83
2022/01/28 00:45:46;;;;;;;0.30;0.10;;;2.40;99.90;;;;;;5057781;28;20477;-84
2022/01/28 00:48:14;;;;;;;0.30;0.10;;;2.50;99.90;;;;;;5062942;28;20883;-83
2022/01/28 00:50:42;;;;;;;0.30;0.10;;;2.50;99.90;;;;;;5055251;28;20503;-82
2022/01/28 00:53:09;;;;;;;0.30;0.10;;;2.50;99.90;;;;;;5064028;28;20989;-83
2022/01/28 00:55:36;;;;;;;0.30;0.10;;;2.50;99.90;;;;;;5060568;28;20951;-83
2022/01/28 00:58:03;;;;;;;0.30;0.10;;;2.40;99.90;;;;;;5059301;28;20447;-85
2022/01/28 01:00:31;;;;;;;0.40;0.20;;;2.40;99.90;;;;;;5053928;28;20479;-83
2022/01/28 01:02:58;;;;;;;0.30;0.10;;;2.40;99.90;;;;;;5069597;28;20447;-82
2022/01/28 01:05:25;;;;;;;0.30;0.10;;;2.40;99.90;;;;;;5059237;28;20498;-83
2022/01/28 01:07:54;;;;;;;0.30;0.10;;;2.30;99.90;;;;;;5063248;28;20521;-86
2022/01/28 01:10:21;;;;;;;0.30;0.10;;;2.30;99.90;;;;;;5070054;28;20496;-85
2022/01/28 01:12:48;;;;;;;0.30;0.10;;;2.30;99.90;;;;;;5065725;28;20472;-84
2022/01/28 01:15:19;;;;;;;0.30;0.10;;;2.30;99.90;;;;;;5068367;28;20531;-84
2022/01/28 01:17:56;;;;;;;0.30;0.10;;;2.30;99.90;;;;;;5078624;28;20450;-87
2022/01/28 01:20:41;;;;;;;0.30;0.10;;;2.40;99.90;;;;;;5082522;28;20529;-84
2022/01/28 01:23:12;;;;;;;0.30;0.10;;;2.40;99.90;;;;;;5072553;28;20526;-84
2022/01/28 01:25:47;;;;;;;0.30;0.10;;;2.40;99.90;;;;;;5063848;28;20456;-84
2022/01/28 01:28:18;;;;;;;0.30;0.10;;;2.30;99.90;;;;;;5044801;28;20446;-83
2022/01/28 01:30:45;;;;;;;0.30;0.10;;;2.40;99.90;;;;;;5062150;28;20493;-86
2022/01/28 01:33:12;;;;;;;0.30;0.10;;;2.40;99.90;;;;;;5056954;28;20490;-84
2022/01/28 01:35:40;;;;;;;0.30;0.10;;;2.40;99.90;;;;;;5058361;28;20440;-87
2022/01/28 01:38:09;;;;;;;0.30;0.10;;;2.40;99.90;;;;;;5068625;28;20467;-82
2022/01/28 01:40:45;;;;;;;0.30;0.10;;;2.40;99.90;;;;;;5067925;28;20468;-87
2022/01/28 01:43:17;;;;;;;0.30;0.10;;;2.40;99.90;;;;;;5070974;28;20477;-87
2022/01/28 01:46:00;;;;;;;0.30;0.10;;;2.40;99.90;;;;;;5069616;28;20449;-85
2022/01/28 01:54:09;;;;;;;0.30;0.10;;;2.50;99.90;;;;;;4999673;28;20480;-86
2022/01/28 01:56:39;;;;;;;0.30;0.10;;;2.50;99.90;;;;;;5048040;28;20616;-84
2022/01/28 01:59:08;;;;;;;0.30;0.10;;;2.50;99.90;;;;;;5067074;28;20535;-83
2022/01/28 02:01:35;;;;;;;0.30;0.10;;;2.60;99.90;;;;;;5057615;28;20531;-83
2022/01/28 02:04:02;;;;;;;0.30;0.10;;;2.60;99.90;;;;;;5066599;28;20477;-87
2022/01/28 02:06:29;;;;;;;0.30;0.10;;;2.60;99.90;;;;;;5065795;28;20447;-85
2022/01/28 02:08:56;;;;;;;0.30;0.10;;;2.60;99.90;;;;;;5064350;28;20522;-84
2022/01/28 02:11:23;;;;;;;0.30;0.10;;;2.60;99.90;;;;;;5068603;28;20784;-84
2022/01/28 02:13:53;;;;;;;0.30;0.10;;;2.60;99.90;;;;;;5067389;28;20610;-84
2022/01/28 02:16:20;;;;;;;0.30;0.20;;;2.60;99.90;;;;;;5060926;28;20448;-87
2022/01/28 02:18:47;;;;;;;0.30;0.10;;;2.60;99.90;;;;;;5062645;28;20526;-85
2022/01/28 02:21:18;;;;;;;0.30;0.10;;;2.70;99.90;;;;;;5060860;28;20522;-83
2022/01/28 02:23:49;;;;;;;0.30;0.10;;;2.70;99.90;;;;;;5057413;28;20468;-86
2022/01/28 02:26:17;;;;;;;0.30;0.10;;;2.70;99.90;;;;;;5061282;28;20495;-84
2022/01/28 02:28:47;;;;;;;0.30;0.10;;;2.80;99.90;;;;;;5062266;28;20451;-84
2022/01/28 02:31:19;;;;;;;0.30;0.10;;;2.80;99.90;;;;;;5056931;28;20479;-84
2022/01/28 02:33:47;;;;;;;0.30;0.10;;;2.80;99.90;;;;;;5064440;28;20490;-84
2022/01/28 02:36:15;;;;;;;0.30;0.10;;;2.90;99.90;;;;;;5064801;28;21205;-83
2022/01/28 02:38:42;;;;;;;0.30;0.10;;;2.90;99.90;;;;;;5065514;28;20447;-84
2022/01/28 02:41:09;;;;;;;0.30;0.10;;;3.00;99.90;;;;;;5060111;28;20533;-84
2022/01/28 02:43:41;;;;;;;0.30;0.20;;;3.10;99.90;;;;;;5062398;28;20516;-83
2022/01/28 02:46:11;;;;;;;0.30;0.10;;;3.20;99.90;;;;;;5056946;28;20464;-84
2022/01/28 02:48:39;;;;;;;0.30;0.20;;;3.10;99.90;;;;;;5063859;28;20455;-83
2022/01/28 02:51:15;;;;;;;0.30;0.20;;;3.10;99.90;;;;;;5064724;28;20548;-84
2022/01/28 02:53:48;;;;;;;0.30;0.10;;;3.10;99.90;;;;;;5085359;28;20505;-84
2022/01/28 02:56:20;;;;;;;0.30;0.20;;;3.10;99.90;;;;;;5073541;28;20447;-84
2022/01/28 02:58:47;;;;;;;0.30;0.10;;;3.10;99.90;;;;;;5069824;28;20455;-86
2022/01/28 03:01:17;;;;;;;0.30;0.10;;;3.10;99.90;;;;;;5064883;28;21063;-84
2022/01/28 03:03:47;;;;;;;0.30;0.20;;;3.10;99.90;;;;;;5064965;28;20796;-85
2022/01/28 03:06:16;;;;;;;0.40;0.20;;;3.20;99.90;;;;;;5054908;28;20531;-84
2022/01/28 03:08:51;;;;;;;0.30;0.10;;;3.20;99.90;;;;;;5049765;28;20460;-84
2022/01/28 03:17:00;;;;;;;0.37;0.27;;;3.20;99.90;;;;;;5060160;28;20201;-84
2022/01/28 03:19:30;;;;;;;0.70;0.40;;;3.20;99.90;;;;;;5065382;28;20551;-85
2022/01/28 03:21:59;;;;;;;0.30;0.10;;;3.20;99.90;;;;;;5056978;28;20485;-85
2022/01/28 03:24:28;;;;;;;0.30;0.10;;;3.20;99.90;;;;;;5060826;28;20546;-84
2022/01/28 03:27:01;;;;;;;0.30;0.20;;;3.10;99.90;;;;;;5061827;28;20459;-83
2022/01/28 03:29:28;;;;;;;1.13;0.50;;;3.20;99.90;;;;;;5064971;28;20551;-84
2022/01/28 03:31:55;;;;;;;0.30;0.20;;;3.10;99.90;;;;;;5063325;28;20500;-84
2022/01/28 03:34:22;;;;;;;0.30;0.10;;;3.10;99.90;;;;;;5066330;28;20291;-84
2022/01/28 03:36:50;;;;;;;0.30;0.10;;;3.10;99.90;;;;;;5055790;28;20460;-84
2022/01/28 03:39:17;;;;;;;0.30;0.10;;;3.00;99.90;;;;;;5060406;28;20526;-84
2022/01/28 03:41:46;;;;;;;0.40;0.40;;;3.00;99.90;;;;;;5062751;28;20958;-84
2022/01/28 03:44:13;;;;;;;0.30;0.20;;;3.00;99.90;;;;;;5059972;28;20463;-86
2022/01/28 03:46:40;;;;;;;0.40;0.30;;;3.00;99.90;;;;;;5055200;28;20247;-87
2022/01/28 03:49:09;;;;;;;0.30;0.10;;;2.90;99.90;;;;;;5063607;28;20520;-84
2022/01/28 03:51:36;;;;;;;0.30;0.10;;;2.90;99.90;;;;;;5057116;28;20476;-84
2022/01/28 03:54:03;;;;;;;0.30;0.20;;;2.90;99.90;;;;;;5058267;28;20545;-88
2022/01/28 03:56:30;;;;;;;0.30;0.10;;;2.90;99.90;;;;;;5066438;28;20532;-84
2022/01/28 03:58:59;;;;;;;0.30;0.10;;;2.90;99.90;;;;;;5060624;28;20512;-85
2022/01/28 04:01:30;;;;;;;0.30;0.10;;;2.90;99.90;;;;;;5065208;28;20455;-87
2022/01/28 04:04:32;;;;;;;0.30;0.10;;;2.90;99.90;;;;;;5061218;28;20544;-84
2022/01/28 04:12:21;;;;;;;0.30;0.10;;;3.00;99.90;;;;;;5059852;28;20455;-84
2022/01/28 04:15:04;;;;;;;0.30;0.10;;;3.10;99.90;;;;;;5067781;28;20818;-84
2022/01/28 04:17:31;;;;;;;2.60;0.67;;;3.10;99.90;;;;;;5069196;28;20466;-89
2022/01/28 04:19:58;;;;;;;0.80;0.80;;;3.00;99.90;;;;;;5067498;28;20470;-84
2022/01/28 04:22:26;;;;;;;0.50;0.47;;;3.00;99.90;;;;;;5063598;28;20520;-87
2022/01/28 04:24:54;;;;;;;0.30;0.13;;;3.00;99.90;;;;;;5067796;28;20852;-85
2022/01/28 04:27:21;;;;;;;0.30;0.17;;;3.00;99.90;;;;;;5086072;28;20515;-83
2022/01/28 04:29:49;;;;;;;0.30;0.20;;;3.10;99.90;;;;;;5076766;28;20448;-84
2022/01/28 04:32:18;;;;;;;0.50;0.40;;;3.10;99.90;;;;;;5072069;28;20460;-84
2022/01/28 04:34:45;;;;;;;0.65;0.65;;;3.10;99.90;;;;;;5067739;28;20823;-87
2022/01/28 04:37:21;;;;;;;0.40;0.20;;;3.10;99.90;;;;;;5057705;28;20589;-83
2022/01/28 04:39:52;;;;;;;0.30;0.10;;;3.10;99.90;;;;;;5052139;28;20994;-84
2022/01/28 04:42:38;;;;;;;1.10;1.10;;;3.10;99.90;;;;;;5052773;28;20526;-85
2022/01/28 04:45:14;;;;;;;0.30;0.10;;;3.10;99.90;;;;;;5055395;28;20271;-84
2022/01/28 04:47:49;;;;;;;0.30;0.10;;;3.10;99.90;;;;;;5057765;28;20458;-84
2022/01/28 04:50:25;;;;;;;0.30;0.10;;;3.10;99.90;;;;;;5060512;28;20456;-84
2022/01/28 04:53:07;;;;;;;0.30;0.10;;;3.10;99.90;;;;;;5065283;28;20814;-84
2022/01/28 04:58:43;;;;;;;0.57;0.50;;;3.10;99.90;;;;;;5020990;28;20443;-86
2022/01/28 05:01:30;;;;;;;0.30;0.10;;;3.10;99.90;;;;;;5048727;28;20513;-86
2022/01/28 05:04:14;;;;;;;0.40;0.20;;;3.00;99.90;;;;;;5056743;28;20547;-84
2022/01/28 05:26:00;;;;;;;0.40;0.30;;;3.10;99.90;;;;;;5064333;28;20486;-84
2022/01/28 05:28:27;;;;;;;0.30;0.10;;;3.10;99.90;;;;;;5060068;28;20542;-84
2022/01/28 05:30:54;;;;;;;0.40;0.20;;;3.10;99.90;;;;;;5060450;28;20451;-82
2022/01/28 05:33:22;;;;;;;0.30;0.10;;;3.10;99.90;;;;;;5077780;28;20451;-83
2022/01/28 05:35:49;;;;;;;0.30;0.20;;;3.20;99.90;;;;;;5065746;28;20510;-85
2022/01/28 05:38:16;;;;;;;0.33;0.17;;;3.20;99.90;;;;;;5082319;28;20452;-83
2022/01/28 05:40:43;;;;;;;0.33;0.17;;;3.20;99.90;;;;;;5075429;28;20445;-87
2022/01/28 05:43:10;;;;;;;0.30;0.10;;;3.20;99.90;;;;;;5075778;28;20514;-81
2022/01/28 05:45:37;;;;;;;0.30;0.10;;;3.20;99.90;;;;;;5078217;28;20443;-83
2022/01/28 05:48:04;;;;;;;0.30;0.10;;;3.00;99.90;;;;;;5084810;28;20966;-83
2022/01/28 05:50:33;;;;;;;0.30;0.20;;;3.00;99.90;;;;;;5072001;28;20481;-84
2022/01/28 05:53:02;;;;;;;0.30;0.10;;;3.00;99.90;;;;;;5070372;28;20907;-83
2022/01/28 05:55:29;;;;;;;0.30;0.10;;;3.00;99.90;;;;;;5064426;28;20486;-83
2022/01/28 05:57:56;;;;;;;0.30;0.10;;;3.00;99.90;;;;;;5060523;28;21000;-83
2022/01/28 06:00:23;;;;;;;0.30;0.20;;;3.10;99.90;;;;;;5067507;28;20484;-81
2022/01/28 06:02:50;;;;;;;0.30;0.10;;;3.10;99.90;;;;;;5076774;28;20449;-82
2022/01/28 06:05:18;;;;;;;0.30;0.20;;;3.10;99.90;;;;;;5075219;28;20450;-86
2022/01/28 06:07:46;;;;;;;0.30;0.20;;;3.10;99.90;;;;;;5070850;28;20474;-85
2022/01/28 06:10:14;;;;;;;0.30;0.10;;;3.10;99.90;;;;;;5058325;28;20479;-86
2022/01/28 06:12:42;;;;;;;0.30;0.10;;;3.20;99.90;;;;;;5058037;28;20765;-84
2022/01/28 06:15:10;;;;;;;0.30;0.20;;;3.10;99.90;;;;;;5056219;28;20490;-84
2022/01/28 06:17:38;;;;;;;0.30;0.10;;;3.20;99.90;;;;;;5054351;28;20989;-83
2022/01/28 06:20:08;;;;;;;0.30;0.10;;;3.20;99.90;;;;;;5055740;28;20468;-81
2022/01/28 06:22:39;;;;;;;0.30;0.10;;;3.20;99.90;;;;;;5061162;28;20448;-82
2022/01/28 06:25:09;;;;;;;0.30;0.10;;;3.30;99.90;;;;;;5065612;28;20540;-82
2022/01/28 06:27:37;;;;;;;0.30;0.10;;;3.20;99.90;;;;;;5065140;28;20440;-82
2022/01/28 06:30:06;;;;;;;0.30;0.10;;;3.20;99.90;;;;;;5064255;28;20513;-81
2022/01/28 06:32:33;;;;;;;0.30;0.10;;;3.20;99.90;;;;;;5055733;28;20443;-82
2022/01/28 06:35:05;;;;;;;0.30;0.10;;;3.00;99.90;;;;;;5062666;28;20472;-83
2022/01/28 06:37:32;;;;;;;0.30;0.10;;;2.80;99.90;;;;;;5061601;28;20451;-82
2022/01/28 06:39:59;;;;;;;0.30;0.10;;;2.60;99.90;;;;;;5063164;28;20927;-84
2022/01/28 06:42:27;;;;;;;0.30;0.10;;;2.50;99.90;;;;;;5065611;28;20446;-83
2022/01/28 06:44:54;;;;;;;0.30;0.20;;;2.20;99.90;;;;;;5064329;28;20471;-82
2022/01/28 06:47:21;;;;;;;0.30;0.10;;;1.80;99.90;;;;;;5062295;28;20521;-82
2022/01/28 06:49:48;;;;;;;0.40;0.28;;;1.50;99.90;;;;;;5061065;28;20458;-81
2022/01/28 06:52:15;;;;;;;0.30;0.10;;;1.30;99.90;;;;;;5059670;28;20205;-83
2022/01/28 06:54:42;;;;;;;0.30;0.10;;;1.30;99.90;;;;;;5070023;28;20752;-84
2022/01/28 06:57:09;;;;;;;0.30;0.10;;;1.40;99.90;;;;;;5060832;28;21234;-83
2022/01/28 06:59:37;;;;;;;0.30;0.10;;;1.50;99.90;;;;;;5066118;28;20225;-82
2022/01/28 07:02:05;;;;;;;0.30;0.10;;;1.80;99.90;;;;;;5064405;28;20663;-82
2022/01/28 07:04:32;;;;;;;0.30;0.10;;;2.00;99.90;;;;;;5064374;28;20443;-86
2022/01/28 07:06:59;;;;;;;0.30;0.10;;;2.10;99.90;;;;;;5066337;28;20535;-82
2022/01/28 07:09:26;;;;;;;0.30;0.10;;;2.30;99.90;;;;;;5069486;28;20435;-82
2022/01/28 07:11:53;;;;;;;0.30;0.10;;;2.40;99.90;;;;;;5063858;28;20463;-82
2022/01/28 07:14:20;;;;;;;0.30;0.10;;;2.40;99.90;;;;;;5063996;28;20573;-84
2022/01/28 07:16:48;;;;;;;0.30;0.10;;;2.40;99.90;;;;;;5062609;28;20447;-85
2022/01/28 07:19:15;;;;;;;0.30;0.20;;;2.40;99.90;;;;;;5066201;28;20496;-82
2022/01/28 07:21:42;;;;;;;0.30;0.10;;;2.50;99.90;;;;;;5065601;28;20476;-82
2022/01/28 07:24:09;;;;;;;0.30;0.10;;;2.50;99.90;;;;;;5059344;28;20468;-82
2022/01/28 07:26:36;;;;;;;0.30;0.10;;;2.50;99.90;;;;;;5061696;28;20803;-82
2022/01/28 07:29:03;;;;;;;0.30;0.20;;;2.50;99.90;;;;;;5063813;28;21019;-86
2022/01/28 07:31:33;;;;;;;0.30;0.10;;;2.60;99.90;;;;;;5068388;28;20444;-82
2022/01/28 07:34:01;;;;;;;0.40;0.30;;;2.50;99.90;;;;;;5062989;28;20922;-83
2022/01/28 07:36:28;;;;;;;0.30;0.10;;;2.50;99.90;;;;;;5067217;28;20525;-82
2022/01/28 07:38:55;;;;;;;0.30;0.10;;;2.60;99.90;;;;;;5087028;28;20440;-82
2022/01/28 07:41:22;;;;;;;0.30;0.10;;;2.60;99.90;;;;;;5077728;28;20440;-81
2022/01/28 07:43:49;;;;;;;0.30;0.20;;;2.70;99.90;;;;;;5072735;28;20451;-83
2022/01/28 07:46:16;;;;;;;0.30;0.10;;;2.80;99.90;;;;;;5066431;28;20439;-82
2022/01/28 07:48:43;;;;;;;0.40;0.23;;;2.80;99.90;;;;;;5065934;28;20494;-81
2022/01/28 07:51:11;;;;;;;0.30;0.10;;;2.80;99.90;;;;;;5062693;28;20463;-82
2022/01/28 07:53:38;;;;;;;0.30;0.10;;;2.80;99.90;;;;;;5056504;28;20811;-85
2022/01/28 07:56:05;;;;;;;0.30;0.10;;;2.80;99.90;;;;;;5064860;28;20556;-80
2022/01/28 07:58:32;;;;;;;0.30;0.10;;;2.80;99.90;;;;;;5069915;28;20443;-81
2022/01/28 08:00:59;;;;;;;0.30;0.10;;;2.80;99.90;;;;;;5065627;28;20471;-82
2022/01/28 08:03:26;;;;;;;0.40;0.20;;;2.80;99.90;;;;;;5063733;28;20459;-82
2022/01/28 08:05:53;;;;;;;0.30;0.20;;;2.80;99.90;;;;;;5072661;28;20452;-84
2022/01/28 08:08:21;;;;;;;1.23;0.60;;;2.80;99.90;;;;;;5067481;28;20835;-84
2022/01/28 08:10:48;;;;;;;0.30;0.10;;;2.90;99.90;;;;;;5068616;28;20454;-81
2022/01/28 08:13:16;;;;;;;0.30;0.20;;;2.90;99.90;;;;;;5043793;28;20464;-81
2022/01/28 08:15:43;;;;;;;0.30;0.20;;;2.90;99.90;;;;;;5053231;28;20550;-80
2022/01/28 08:18:10;;;;;;;0.47;0.40;;;2.90;99.90;;;;;;5052407;28;20530;-79
2022/01/28 08:20:38;;;;;;;0.30;0.10;;;2.90;99.90;;;;;;5048931;28;20198;-84
2022/01/28 08:23:06;;;;;;;0.40;0.20;;;2.90;99.90;;;;;;5031617;28;20505;-81
2022/01/28 08:25:36;;;;;;;0.30;0.10;;;2.90;99.90;;;;;;5031758;28;20453;-81
2022/01/28 08:28:04;;;;;;;0.63;0.63;;;2.90;99.90;;;;;;5032792;28;20441;-81
2022/01/28 08:30:32;;;;;;;0.30;0.10;;;2.90;99.90;;;;;;5032767;28;20462;-81
2022/01/28 08:33:00;;;;;;;0.30;0.20;;;2.90;99.90;;;;;;5032564;28;20444;-80
2022/01/28 08:35:32;;;;;;;0.30;0.10;;;3.00;99.90;;;;;;5032653;28;20488;-86
2022/01/28 08:37:59;;;;;;;0.30;0.10;;;3.00;99.90;;;;;;5046075;28;20538;-82
2022/01/28 08:40:28;;;;;;;0.30;0.10;;;3.00;99.90;;;;;;5068368;28;20454;-81
2022/01/28 08:42:56;;;;;;;0.30;0.10;;;3.10;99.90;;;;;;5072824;28;20839;-83
2022/01/28 08:45:23;;;;;;;0.30;0.10;;;3.10;99.90;;;;;;5060907;28;20448;-81
2022/01/28 08:47:50;;;;;;;0.30;0.10;;;3.10;99.90;;;;;;5048079;28;20474;-80
2022/01/28 08:50:17;;;;;;;0.30;0.10;;;3.10;99.90;;;;;;5052661;28;20503;-81
2022/01/28 08:52:46;;;;;;;0.30;0.10;;;3.10;99.90;;;;;;5041861;28;20527;-81
2022/01/28 08:55:15;;;;;;;0.30;0.10;;;3.00;99.90;;;;;;5032892;28;20546;-80
2022/01/28 08:57:43;;;;;;;0.30;0.10;;;2.80;99.90;;;;;;5032713;28;20453;-81
2022/01/28 09:00:14;;;;;;;0.30;0.10;;;2.60;99.90;;;;;;5032410;28;20492;-83
2022/01/28 09:02:41;;;;;;;0.30;0.10;;;2.50;99.90;;;;;;5044960;28;20469;-85
2022/01/28 09:05:09;;;;;;;0.40;0.20;;;2.60;99.90;;;;;;5052581;28;20494;-81
2022/01/28 09:07:36;;;;;;;0.30;0.10;;;2.60;99.90;;;;;;5049078;28;20460;-82
2022/01/28 09:10:10;;;;;;;0.30;0.10;;;2.60;99.90;;;;;;5041302;28;20448;-80
2022/01/28 09:12:46;;;;;;;0.37;0.17;;;2.60;99.90;;;;;;5047369;28;20468;-81
2022/01/28 09:15:16;;;;;;;0.30;0.20;;;2.70;99.90;;;;;;5049502;28;20511;-82
2022/01/28 09:17:43;;;;;;;0.30;0.10;;;2.70;99.90;;;;;;5060568;28;20970;-81
2022/01/28 09:20:10;;;;;;;0.30;0.10;;;2.70;99.90;;;;;;5052886;28;20502;-82
2022/01/28 09:22:37;;;;;;;1.43;0.23;;;2.80;99.90;;;;;;5051824;28;20202;-82
2022/01/28 09:25:05;;;;;;;0.30;0.10;;;3.00;99.90;;;;;;5046205;28;20476;-82
2022/01/28 09:27:32;;;;;;;0.30;0.10;;;3.00;99.90;;;;;;5031552;28;20458;-81
2022/01/28 09:29:59;;;;;;;0.30;0.20;;;3.10;99.90;;;;;;5032088;28;20449;-81
2022/01/28 09:32:28;;;;;;;0.30;0.10;;;3.20;99.90;;;;;;5031865;28;20452;-82
2022/01/28 09:34:55;;;;;;;0.30;0.10;;;3.30;99.90;;;;;;5047136;28;20729;-81
2022/01/28 09:37:23;;;;;;;1.73;0.83;;;3.30;99.90;;;;;;5051549;28;20467;-81
2022/01/28 09:39:50;;;;;;;1.07;0.20;;;3.30;99.90;;;;;;5051885;28;21165;-84
2022/01/28 09:42:20;;;;;;;0.30;0.20;;;3.20;99.90;;;;;;5050959;28;20850;-84
2022/01/28 09:44:47;;;;;;;0.40;0.20;;;3.20;99.90;;;;;;5051465;28;20923;-79
2022/01/28 09:47:15;;;;;;;0.30;0.10;;;3.00;99.90;;;;;;5048664;28;20819;-82
2022/01/28 09:49:44;;;;;;;0.30;0.10;;;2.70;99.90;;;;;;5051521;28;20454;-80
2022/01/28 09:52:13;;;;;;;0.30;0.10;;;2.50;99.90;;;;;;5050186;28;20478;-83
2022/01/28 09:54:43;;;;;;;0.30;0.10;;;2.30;99.90;;;;;;5051390;28;20943;-80
2022/01/28 09:57:10;;;;;;;0.30;0.10;;;2.10;99.90;;;;;;5051738;28;20452;-81
2022/01/28 09:59:38;;;;;;;0.30;0.10;;;2.20;99.90;;;;;;5050832;28;20468;-81
2022/01/28 10:02:05;;;;;;;0.30;0.10;;;2.20;99.90;;;;;;5039882;28;20515;-81
2022/01/28 10:04:32;;;;;;;0.30;0.10;;;2.40;99.90;;;;;;5050997;28;20448;-81
2022/01/28 10:07:10;;;;;;;0.30;0.10;;;2.50;99.90;;;;;;5050007;28;20470;-83
2022/01/28 10:09:38;;;;;;;0.40;0.30;;;2.60;99.90;;;;;;5063911;28;21022;-81
2022/01/28 10:12:18;;;;;;;0.30;0.10;;;2.80;99.90;;;;;;5069900;28;20911;-85
2022/01/28 10:15:01;;;;;;;0.30;0.10;;;2.90;99.90;;;;;;5034272;28;20527;-82
2022/01/28 10:17:51;;;;;;;0.30;0.20;;;3.00;99.90;;;;;;5049808;28;20452;-81
2022/01/28 10:20:19;;;;;;;0.70;0.57;;;2.90;99.90;;;;;;5037262;28;20461;-81
2022/01/28 10:22:55;;;;;;;0.40;0.30;;;2.60;99.90;;;;;;5050675;28;20505;-81
2022/01/28 10:25:27;;;;;;;0.30;0.13;;;1.90;99.90;;;;;;5045159;28;20547;-81
2022/01/28 10:27:59;;;;;;;2.73;1.43;;;1.80;99.90;;;;;;5063653;28;20451;-80
2022/01/28 10:30:26;;;;;;;0.30;0.10;;;1.80;99.90;;;;;;5064365;28;20491;-83
2022/01/28 10:33:11;;;;;;;0.30;0.10;;;2.00;99.90;;;;;;5031060;28;20503;-80
2022/01/28 10:35:39;;;;;;;0.30;0.20;;;2.10;99.90;;;;;;5029220;28;20595;-80
2022/01/28 10:38:08;;;;;;;0.30;0.10;;;2.20;99.90;;;;;;5049693;28;21146;-82
2022/01/28 10:40:35;;;;;;;0.30;0.17;;;2.40;99.90;;;;;;5049801;28;20460;-81
2022/01/28 10:43:02;;;;;;;0.30;0.10;;;2.50;99.90;;;;;;5033678;28;20786;-81
2022/01/28 10:45:31;;;;;;;0.30;0.20;;;2.50;99.90;;;;;;5047030;28;20459;-80
2022/01/28 10:48:02;;;;;;;0.30;0.10;;;2.30;99.90;;;;;;5063310;28;20481;-81
2022/01/28 10:50:31;;;;;;;0.30;0.20;;;2.10;99.90;;;;;;5058512;28;20463;-79
2022/01/28 10:53:05;;;;;;;0.30;0.10;;;2.00;99.90;;;;;;5059328;28;20247;-82
2022/01/28 10:55:36;;;;;;;0.30;0.10;;;1.60;99.90;;;;;;5050786;28;20464;-83
2022/01/28 10:58:04;;;;;;;0.30;0.10;;;1.50;99.90;;;;;;5041357;28;20475;-82
2022/01/28 11:00:33;;;;;;;0.30;0.10;;;1.60;99.90;;;;;;5030017;28;20231;-82
2022/01/28 11:03:02;;;;;;;0.30;0.20;;;1.70;99.90;;;;;;5042979;28;20927;-81
2022/01/28 11:05:31;;;;;;;1.60;1.50;;;1.90;99.90;;;;;;5045819;28;20201;-81
2022/01/28 11:07:59;;;;;;;0.30;0.10;;;2.40;99.90;;;;;;5030678;28;20525;-84
2022/01/28 11:10:26;;;;;;;0.30;0.10;;;2.80;99.90;;;;;;5029996;28;20506;-81
2022/01/28 11:12:57;;;;;;;0.30;0.20;;;3.10;99.90;;;;;;5043858;28;20464;-83
2022/01/28 11:15:24;;;;;;;0.30;0.10;;;3.20;99.90;;;;;;5045654;28;20486;-81
2022/01/28 11:17:52;;;;;;;0.30;0.10;;;3.20;99.90;;;;;;5029750;28;20441;-82
2022/01/28 11:20:22;;;;;;;0.30;0.10;;;3.20;99.90;;;;;;5031059;28;20522;-82
2022/01/28 11:23:05;;;;;;;0.30;0.10;;;3.10;99.90;;;;;;5030086;28;20943;-85
2022/01/28 11:25:44;;;;;;;0.30;0.10;;;3.10;99.90;;;;;;5029636;28;20523;-84
2022/01/28 11:28:14;;;;;;;0.30;0.10;;;3.20;99.90;;;;;;5030048;28;20448;-81
2022/01/28 11:30:51;;;;;;;0.30;0.10;;;3.30;99.90;;;;;;5029815;28;20847;-83
2022/01/28 11:33:19;;;;;;;0.30;0.10;;;3.40;99.90;;;;;;5030104;28;20852;-83
2022/01/28 11:36:03;;;;;;;0.30;0.20;;;3.40;99.90;;;;;;5035191;28;20565;-83
2022/01/28 11:38:51;;;;;;;0.30;0.10;;;3.20;99.90;;;;;;5048009;28;20945;-82
2022/01/28 11:41:24;;;;;;;0.30;0.10;;;3.10;99.90;;;;;;5047209;28;20460;-83
2022/01/28 11:43:54;;;;;;;2.00;1.90;;;3.10;99.90;;;;;;5049456;28;20526;-83
2022/01/28 11:46:27;;;;;;;0.30;0.10;;;3.10;99.90;;;;;;5062423;28;20464;-83
2022/01/28 11:49:24;;;;;;;0.30;0.10;;;3.20;99.90;;;;;;5064695;28;21201;-82
2022/01/28 11:51:52;;;;;;;0.30;0.10;;;3.10;99.90;;;;;;5062093;28;21011;-83
2022/01/28 11:54:35;;;;;;;0.30;0.10;;;3.20;99.90;;;;;;5064368;28;20448;-85
2022/01/28 11:57:13;;;;;;;0.30;0.10;;;3.30;99.90;;;;;;5069010;28;20483;-83
2022/01/28 11:59:42;;;;;;;0.30;0.20;;;3.50;99.90;;;;;;5069432;28;20482;-82
2022/01/28 12:02:14;;;;;;;0.30;0.10;;;3.80;99.90;;;;;;5055489;28;20555;-83
2022/01/28 12:04:43;;;;;;;0.87;0.87;;;3.90;99.90;;;;;;5049403;28;20518;-82
2022/01/28 12:07:14;;;;;;;0.30;0.20;;;4.00;99.90;;;;;;5047874;28;21031;-83
2022/01/28 12:09:44;;;;;;;0.30;0.20;;;4.00;99.90;;;;;;5047720;28;20480;-83
2022/01/28 12:12:12;;;;;;;0.30;0.10;;;4.00;99.90;;;;;;5045463;28;20460;-82
2022/01/28 12:15:08;;;;;;;0.30;0.10;;;4.00;99.90;;;;;;5031599;28;20475;-83
2022/01/28 12:17:46;;;;;;;0.30;0.10;;;4.00;99.90;;;;;;5050111;28;20476;-82
2022/01/28 12:20:23;;;;;;;0.30;0.10;;;4.00;99.90;;;;;;5061053;28;20436;-83
2022/01/28 12:23:28;;;;;;;0.30;0.10;;;4.10;99.90;;;;;;5065317;28;20532;-86
2022/01/28 12:25:59;;;;;;;0.30;0.10;;;4.00;99.90;;;;;;5081942;28;20451;-82
2022/01/28 12:28:41;;;;;;;0.30;0.10;;;4.00;99.90;;;;;;5059285;28;20524;-82
2022/01/28 12:31:14;;;;;;;0.30;0.10;;;4.00;99.90;;;;;;5071095;28;20470;-80
2022/01/28 12:33:43;;;;;;;0.30;0.10;;;4.00;99.90;;;;;;5038817;28;20827;-81
2022/01/28 12:36:12;;;;;;;0.30;0.10;;;3.90;99.90;;;;;;5033586;28;20481;-80
2022/01/28 12:38:44;;;;;;;0.30;0.10;;;3.90;99.90;;;;;;5032054;28;20499;-82
2022/01/28 12:41:13;;;;;;;0.30;0.10;;;3.90;99.90;;;;;;5032673;28;20473;-84
2022/01/28 12:43:40;;;;;;;0.30;0.20;;;3.90;99.90;;;;;;5032890;28;20546;-81
2022/01/28 12:46:09;;;;;;;0.30;0.10;;;3.80;99.90;;;;;;5047279;28;20494;-81
2022/01/28 12:48:45;;;;;;;0.30;0.10;;;3.70;99.90;;;;;;5068289;28;20800;-81
2022/01/28 12:51:12;;;;;;;0.30;0.10;;;3.60;99.90;;;;;;5052563;28;20436;-81
2022/01/28 12:53:41;;;;;;;0.30;0.10;;;3.60;99.90;;;;;;5035778;28;20813;-83
2022/01/28 12:56:10;;;;;;;0.30;0.10;;;3.50;99.90;;;;;;5052055;28;20534;-85
2022/01/28 12:58:40;;;;;;;0.30;0.10;;;3.50;99.90;;;;;;5047655;28;20545;-84
2022/01/28 13:01:11;;;;;;;0.30;0.10;;;3.60;99.90;;;;;;5050983;28;20526;-83
2022/01/28 13:03:48;;;;;;;0.30;0.10;;;3.60;99.90;;;;;;5049275;28;20465;-85
2022/01/28 13:06:23;;;;;;;0.30;0.20;;;3.60;99.90;;;;;;5055649;28;21210;-87
2022/01/28 13:08:50;;;;;;;0.30;0.10;;;3.70;99.90;;;;;;5060997;28;20522;-83
2022/01/28 13:11:17;;;;;;;0.50;0.50;;;3.60;99.90;;;;;;5051601;28;21063;-84
2022/01/28 13:13:48;;;;;;;0.30;0.10;;;3.50;99.90;;;;;;5053595;28;20570;-83
2022/01/28 13:16:15;;;;;;;1.40;1.40;;;3.50;99.90;;;;;;5041463;28;20485;-83
2022/01/28 13:18:57;;;;;;;0.30;0.10;;;3.50;99.90;;;;;;5061275;28;20545;-86
2022/01/28 13:21:24;;;;;;;0.30;0.10;;;3.50;99.90;;;;;;5042273;28;20940;-83
2022/01/28 13:24:05;;;;;;;0.30;0.10;;;3.40;99.90;;;;;;5031931;28;20988;-84
2022/01/28 13:26:32;;;;;;;0.30;0.10;;;3.40;99.90;;;;;;5031496;28;20442;-83
2022/01/28 13:29:10;;;;;;;0.40;0.20;;;3.30;99.90;;;;;;5032014;28;20968;-84
2022/01/28 13:31:38;;;;;;;0.30;0.10;;;3.20;99.90;;;;;;5035324;28;20461;-83
2022/01/28 13:34:10;;;;;;;0.37;0.17;;;3.10;99.90;;;;;;5038909;28;20505;-84
2022/01/28 13:36:47;;;;;;;0.30;0.10;;;3.10;99.90;;;;;;5040968;28;20488;-83
2022/01/28 13:39:18;;;;;;;0.30;0.10;;;3.10;99.90;;;;;;5032896;28;20507;-83
2022/01/28 13:41:51;;;;;;;0.30;0.10;;;3.00;99.90;;;;;;5037988;28;20527;-85
2022/01/28 13:44:26;;;;;;;0.30;0.10;;;3.00;99.90;;;;;;5049046;28;20534;-83
2022/01/28 13:46:58;;;;;;;0.30;0.10;;;3.00;99.90;;;;;;5048455;28;20461;-83
2022/01/28 13:49:32;;;;;;;0.30;0.10;;;3.00;99.90;;;;;;5054321;28;20462;-83
2022/01/28 13:52:11;;;;;;;0.30;0.10;;;2.90;99.90;;;;;;5059026;28;20447;-83
2022/01/28 13:54:38;;;;;;;0.30;0.10;;;2.90;99.90;;;;;;5069400;28;20469;-83
2022/01/28 13:57:07;;;;;;;0.30;0.10;;;2.80;99.90;;;;;;5083900;28;20576;-83
2022/01/28 13:59:35;;;;;;;0.30;0.10;;;2.70;99.90;;;;;;5077198;28;20471;-83
2022/01/28 14:02:03;;;;;;;0.30;0.20;;;2.70;99.90;;;;;;5078704;28;20466;-83
2022/01/28 14:04:36;;;;;;;0.30;0.10;;;2.70;99.90;;;;;;5066262;28;20455;-87
2022/01/28 14:07:15;;;;;;;0.30;0.10;;;2.80;99.90;;;;;;5047675;28;20449;-84
2022/01/28 14:09:55;;;;;;;0.30;0.10;;;2.80;99.90;;;;;;5047668;28;20476;-82
2022/01/28 14:12:33;;;;;;;0.30;0.10;;;2.80;99.90;;;;;;5063908;28;20461;-83